Time;durP1;ratioP1;P1;durP2;ratioP2;P2;SDS_P1;SDS_P2;PMS_P1;PMS_P2;Temp;Humidity;BMP_temperature;BMP_pressure;BME280_temperature;BME280_humidity;BME280_pressure;Samples;Min_cycle;Max_cycle;Signal;HPM_P1;HPM_P2
2022/08/13 06:11:05;;;;;;;3.10;2.10;;;;;;;;;;12621523;22;9145831;-80
2022/08/13 06:16:23;;;;;;;3.00;1.90;;;;;;;;;;12984845;22;20063;-79
2022/08/13 06:21:25;;;;;;;2.67;2.05;;;;;;;;;;12989187;22;20000;-80
2022/08/13 06:27:35;;;;;;;3.42;2.17;;;;;;;;;;12989839;22;20041;-80
2022/08/13 06:32:16;;;;;;;3.83;2.13;;;;;;;;;;12994823;22;20006;-80
2022/08/13 06:37:56;;;;;;;5.93;2.15;;;;;;;;;;12990172;22;20007;-79
2022/08/13 06:43:15;;;;;;;;;;;;;;;;;;;;;
2022/08/13 06:48:28;;;;;;;3.83;2.40;;;;;;;;;;13017941;22;20012;-81
2022/08/13 06:53:49;;;;;;;9.48;6.53;;;;;;;;;;13018437;22;20000;-80
2022/08/13 06:58:52;;;;;;;3.40;2.25;;;;;;;;;;12990440;22;20343;-83
2022/08/13 07:03:56;;;;;;;2.72;1.60;;;;;;;;;;13023393;22;20008;-83
2022/08/13 07:08:59;;;;;;;2.38;1.92;;;;;;;;;;12978420;22;20072;-83
2022/08/13 07:14:02;;;;;;;2.88;1.70;;;;;;;;;;12974575;22;20004;-83
2022/08/13 07:19:05;;;;;;;3.10;2.03;;;;;;;;;;12972778;22;20003;-83
2022/08/13 07:24:07;;;;;;;4.25;2.10;;;;;;;;;;12971457;22;20340;-85
2022/08/13 07:29:09;;;;;;;3.05;1.85;;;;;;;;;;12968971;22;20087;-82
2022/08/13 07:34:10;;;;;;;2.65;1.90;;;;;;;;;;12970244;22;20000;-82
2022/08/13 07:39:12;;;;;;;2.50;1.90;;;;;;;;;;12969135;22;20007;-82
2022/08/13 07:44:17;;;;;;;3.42;2.55;;;;;;;;;;12970534;22;20019;-83
2022/08/13 07:49:20;;;;;;;2.42;2.00;;;;;;;;;;12997667;22;19999;-84
2022/08/13 07:54:21;;;;;;;2.70;2.03;;;;;;;;;;12980898;22;20455;-83
2022/08/13 07:59:22;;;;;;;4.78;2.10;;;;;;;;;;12967596;22;20031;-82
2022/08/13 08:04:24;;;;;;;2.22;1.80;;;;;;;;;;12966810;22;20313;-82
2022/08/13 08:09:29;;;;;;;5.20;1.98;;;;;;;;;;12965818;22;20087;-82
2022/08/13 08:14:31;;;;;;;5.25;2.00;;;;;;;;;;12968702;22;20003;-83
2022/08/13 08:19:32;;;;;;;4.00;2.03;;;;;;;;;;12986002;22;20014;-83
2022/08/13 08:24:45;;;;;;;3.13;2.03;;;;;;;;;;12991880;22;20019;-82
2022/08/13 08:29:47;;;;;;;3.25;1.52;;;;;;;;;;12998646;22;20004;-81
2022/08/13 08:34:50;;;;;;;12.52;3.03;;;;;;;;;;12969013;22;20007;-81
2022/08/13 08:45:16;;;;;;;3.13;1.70;;;;;;;;;;13002204;22;20436;-81
2022/08/13 08:50:18;;;;;;;2.70;2.03;;;;;;;;;;12969039;22;19999;-80
2022/08/13 08:55:19;;;;;;;3.70;2.40;;;;;;;;;;12969311;22;20000;-81
2022/08/13 09:00:23;;;;;;;3.45;2.00;;;;;;;;;;12969148;22;20190;-82
2022/08/13 09:05:25;;;;;;;2.45;1.80;;;;;;;;;;12968231;22;20000;-82
2022/08/13 09:10:26;;;;;;;4.05;2.47;;;;;;;;;;12994840;22;20075;-81
2022/08/13 09:15:27;;;;;;;2.13;1.50;;;;;;;;;;12998196;22;20098;-81
2022/08/13 09:20:29;;;;;;;3.05;1.60;;;;;;;;;;12968137;22;20011;-82
2022/08/13 09:25:30;;;;;;;2.95;1.98;;;;;;;;;;12995598;22;20042;-82
2022/08/13 09:30:51;;;;;;;4.45;1.80;;;;;;;;;;12961694;22;20037;-83
2022/08/13 09:36:22;;;;;;;2.53;2.30;;;;;;;;;;12812567;23;20095;-83
2022/08/13 09:42:05;;;;;;;2.17;1.83;;;;;;;;;;12815201;23;20005;-83
2022/08/13 10:49:29;;;;;;;4.13;1.80;;;;;;;;;;12948281;22;20111;-82
2022/08/13 11:05:37;;;;;;;2.20;1.90;;;;;;;;;;12982224;22;19982;-82
2022/08/13 11:21:52;;;;;;;3.70;1.80;;;;;;;;;;12958235;22;20016;-82
2022/08/13 11:27:24;;;;;;;2.75;1.80;;;;;;;;;;12980865;22;20051;-82
2022/08/13 11:32:35;;;;;;;2.45;1.73;;;;;;;;;;12952124;22;20012;-82
2022/08/13 11:37:37;;;;;;;2.00;1.77;;;;;;;;;;12973673;22;20027;-82
2022/08/13 11:42:57;;;;;;;2.08;1.77;;;;;;;;;;12951890;23;19996;-83
2022/08/13 11:48:23;;;;;;;16.58;14.73;;;;;;;;;;12897269;23;20004;-83
2022/08/13 11:53:31;;;;;;;1.83;1.73;;;;;;;;;;12946873;23;20004;-83
2022/08/13 11:58:38;;;;;;;2.42;2.03;;;;;;;;;;12919236;23;20019;-84
2022/08/13 13:34:29;;;;;;;4.70;3.38;;;;;;;;;;13038923;22;20003;-85
2022/08/13 13:45:11;;;;;;;2.30;1.90;;;;;;;;;;12837649;23;20013;-84
2022/08/13 13:56:24;;;;;;;2.58;1.90;;;;;;;;;;12959691;23;20008;-84
2022/08/13 14:01:48;;;;;;;2.88;2.30;;;;;;;;;;12897392;23;20076;-84
2022/08/13 14:07:23;;;;;;;4.75;3.35;;;;;;;;;;12833777;23;20068;-85
2022/08/13 14:12:59;;;;;;;2.83;2.27;;;;;;;;;;12805130;23;20067;-84
2022/08/13 14:18:01;;;;;;;4.35;2.30;;;;;;;;;;12886115;23;20040;-85
2022/08/13 14:23:13;;;;;;;2.95;2.10;;;;;;;;;;13003345;22;20038;-86
2022/08/13 14:28:22;;;;;;;3.90;2.35;;;;;;;;;;12983617;22;20011;-86
2022/08/13 14:33:35;;;;;;;4.28;2.40;;;;;;;;;;12994706;22;20016;-85
2022/08/13 14:38:39;;;;;;;6.22;5.03;;;;;;;;;;12992738;22;20007;-84
2022/08/13 14:44:13;;;;;;;2.83;2.60;;;;;;;;;;13002087;22;20024;-84
2022/08/13 14:49:20;;;;;;;2.58;2.38;;;;;;;;;;13029520;22;20008;-85
2022/08/13 15:16:26;;;;;;;11.75;10.70;;;;;;;;;;13028022;22;20078;-85
2022/08/13 15:21:28;;;;;;;3.85;2.60;;;;;;;;;;12998382;22;19995;-85
2022/08/13 15:26:39;;;;;;;3.75;2.40;;;;;;;;;;13003523;22;20011;-85
2022/08/13 15:31:43;;;;;;;3.10;2.58;;;;;;;;;;12978804;22;20023;-81
2022/08/13 15:36:44;;;;;;;2.67;2.13;;;;;;;;;;12916367;23;20035;-82
2022/08/13 15:41:45;;;;;;;4.10;2.30;;;;;;;;;;12910377;23;20004;-82
2022/08/13 15:46:46;;;;;;;4.32;2.28;;;;;;;;;;12908836;23;20087;-82
2022/08/13 15:51:47;;;;;;;3.55;2.50;;;;;;;;;;12908702;23;20010;-82
2022/08/13 15:56:49;;;;;;;2.85;2.65;;;;;;;;;;12909252;23;20008;-82
2022/08/13 16:01:50;;;;;;;2.83;2.50;;;;;;;;;;12916108;23;20001;-81
2022/08/13 16:06:52;;;;;;;13.80;12.43;;;;;;;;;;12946279;23;20008;-82
2022/08/13 16:11:55;;;;;;;2.97;2.50;;;;;;;;;;12925364;23;20004;-81
2022/08/13 16:17:01;;;;;;;3.42;2.33;;;;;;;;;;12909857;23;20018;-83
2022/08/13 16:22:02;;;;;;;4.07;2.20;;;;;;;;;;12908748;23;20015;-82
2022/08/13 16:27:04;;;;;;;3.00;2.70;;;;;;;;;;12908025;23;20458;-83
2022/08/13 16:32:06;;;;;;;3.10;2.42;;;;;;;;;;12910368;23;20012;-83
2022/08/13 16:37:09;;;;;;;3.58;2.55;;;;;;;;;;12907051;23;20004;-82
2022/08/13 16:42:13;;;;;;;3.88;2.55;;;;;;;;;;12906790;23;20004;-82
2022/08/13 16:47:16;;;;;;;2.28;2.08;;;;;;;;;;12907002;23;20011;-82
2022/08/13 16:52:17;;;;;;;4.10;2.53;;;;;;;;;;12907184;23;20004;-81
2022/08/13 16:57:18;;;;;;;4.15;2.90;;;;;;;;;;12906422;23;20035;-81
2022/08/13 17:09:10;;;;;;;3.67;2.47;;;;;;;;;;12907206;23;20376;-82
2022/08/13 17:13:00;;;;;;;3.60;3.30;;;;;;;;;;12935180;23;20008;-82
2022/08/13 17:18:01;;;;;;;3.17;2.67;;;;;;;;;;12909776;23;20062;-82
2022/08/13 17:23:05;;;;;;;6.18;2.88;;;;;;;;;;12908886;23;20008;-83
2022/08/13 17:28:07;;;;;;;4.97;3.00;;;;;;;;;;12909367;23;20008;-82
2022/08/13 17:33:09;;;;;;;3.60;2.90;;;;;;;;;;12911515;23;20016;-82
2022/08/13 17:38:10;;;;;;;4.10;2.60;;;;;;;;;;12909600;23;20011;-82
2022/08/13 17:43:11;;;;;;;3.22;2.60;;;;;;;;;;12904163;23;20046;-81
2022/08/13 17:48:12;;;;;;;3.97;2.88;;;;;;;;;;12903310;23;20008;-82
2022/08/13 17:53:14;;;;;;;5.47;2.88;;;;;;;;;;12903903;23;20008;-81
2022/08/13 17:58:15;;;;;;;3.80;2.90;;;;;;;;;;12931396;23;20007;-81
2022/08/13 18:03:17;;;;;;;3.55;3.13;;;;;;;;;;12905832;23;20004;-81
2022/08/13 18:08:18;;;;;;;4.07;2.83;;;;;;;;;;12903240;23;20262;-82
2022/08/13 18:13:19;;;;;;;4.95;2.72;;;;;;;;;;12930640;23;20003;-81
2022/08/13 18:18:20;;;;;;;3.20;2.90;;;;;;;;;;12904480;23;20503;-82
2022/08/13 18:23:22;;;;;;;3.40;3.10;;;;;;;;;;12906319;23;20344;-81
2022/08/13 18:28:24;;;;;;;4.47;2.90;;;;;;;;;;12904621;23;20004;-81
2022/08/13 18:33:25;;;;;;;4.93;4.20;;;;;;;;;;12904518;23;20016;-82
2022/08/13 18:38:26;;;;;;;4.88;3.40;;;;;;;;;;12904729;23;20007;-82
2022/08/13 18:43:27;;;;;;;4.30;3.40;;;;;;;;;;12905572;23;20004;-82
2022/08/13 18:48:29;;;;;;;5.10;3.75;;;;;;;;;;12905060;23;20024;-82
2022/08/13 18:53:30;;;;;;;3.50;3.20;;;;;;;;;;12904761;23;19996;-81
2022/08/13 18:58:32;;;;;;;4.55;4.03;;;;;;;;;;12910534;23;20004;-83
2022/08/13 19:03:35;;;;;;;4.35;3.22;;;;;;;;;;12907421;23;20030;-83
2022/08/13 19:08:36;;;;;;;4.18;3.55;;;;;;;;;;12936302;23;20004;-83
2022/08/13 19:13:37;;;;;;;3.40;3.10;;;;;;;;;;12908281;23;20085;-82
2022/08/13 19:18:39;;;;;;;4.82;3.53;;;;;;;;;;12908816;23;20023;-82
2022/08/13 19:23:40;;;;;;;3.92;3.58;;;;;;;;;;12911283;23;20093;-82
